Time;durP1;ratioP1;P1;durP2;ratioP2;P2;SDS_P1;SDS_P2;PMS_P1;PMS_P2;Temp;Humidity;BMP_temperature;BMP_pressure;BME280_temperature;BME280_humidity;BME280_pressure;Samples;Min_cycle;Max_cycle;Signal;HPM_P1;HPM_P2
2023/05/22 00:00:17;;;;;;;20.48;13.55;;;20.80;88.70;;;;;;5100785;27;20047;-84
2023/05/22 00:02:43;;;;;;;19.00;12.80;;;20.80;88.80;;;;;;5117392;27;20024;-84
2023/05/22 00:05:10;;;;;;;23.50;14.18;;;20.80;89.30;;;;;;5134805;27;20020;-84
2023/05/22 00:07:37;;;;;;;21.27;13.75;;;20.70;88.70;;;;;;5117814;27;20027;-84
2023/05/22 00:10:04;;;;;;;21.50;14.13;;;20.70;88.70;;;;;;5134596;27;20115;-84
2023/05/22 00:12:30;;;;;;;21.95;13.75;;;20.70;88.90;;;;;;5117404;27;20092;-84
2023/05/22 00:14:55;;;;;;;21.70;13.50;;;20.60;89.30;;;;;;5100372;27;20035;-84
2023/05/22 00:17:23;;;;;;;23.63;14.45;;;20.60;89.40;;;;;;5134465;27;20369;-84
2023/05/22 00:19:50;;;;;;;22.08;13.55;;;20.60;89.40;;;;;;5117502;27;20024;-84
2023/05/22 00:22:16;;;;;;;20.80;13.52;;;20.60;89.30;;;;;;5134543;27;20532;-84
2023/05/22 00:24:41;;;;;;;23.13;15.18;;;20.70;89.30;;;;;;5134401;27;20113;-84
2023/05/22 00:27:07;;;;;;;22.58;14.43;;;20.60;89.20;;;;;;5117284;27;20031;-84
2023/05/22 00:29:33;;;;;;;24.92;14.80;;;20.60;89.20;;;;;;5117129;27;20027;-84
2023/05/22 00:31:59;;;;;;;23.30;14.70;;;20.60;89.20;;;;;;5116663;28;20024;-84
2023/05/22 00:34:24;;;;;;;24.45;15.02;;;20.60;89.30;;;;;;5134157;27;20038;-84
2023/05/22 00:36:50;;;;;;;24.15;15.32;;;20.50;89.20;;;;;;5117110;27;20189;-84
2023/05/22 00:39:15;;;;;;;28.23;15.38;;;20.50;89.40;;;;;;5117003;27;20027;-84
2023/05/22 00:41:41;;;;;;;26.70;15.65;;;20.50;89.60;;;;;;5099995;27;20027;-84
2023/05/22 00:44:09;;;;;;;24.10;15.18;;;20.40;89.70;;;;;;5116997;27;20388;-84
2023/05/22 00:46:35;;;;;;;24.02;14.65;;;20.40;89.80;;;;;;5117060;27;20034;-84
2023/05/22 00:49:00;;;;;;;25.83;15.43;;;20.40;89.80;;;;;;5116864;27;20015;-84
2023/05/22 00:51:27;;;;;;;23.42;14.82;;;20.40;90.00;;;;;;5099622;27;20500;-84
2023/05/22 00:53:53;;;;;;;24.98;14.82;;;20.30;90.00;;;;;;5116623;27;20031;-84
2023/05/22 00:56:20;;;;;;;27.15;15.65;;;20.30;90.00;;;;;;5135400;27;20368;-84
2023/05/22 00:58:46;;;;;;;25.65;15.60;;;20.30;89.90;;;;;;5116808;27;20026;-84
2023/05/22 01:01:12;;;;;;;26.80;15.48;;;20.30;89.80;;;;;;5133633;27;20027;-84
2023/05/22 01:03:43;;;;;;;27.52;15.85;;;20.30;89.90;;;;;;5116450;27;20491;-84
2023/05/22 01:06:20;;;;;;;24.75;15.25;;;20.30;89.90;;;;;;5133633;27;20034;-84
2023/05/22 01:08:46;;;;;;;25.85;15.20;;;20.30;89.90;;;;;;5100643;27;20023;-84
2023/05/22 01:11:18;;;;;;;23.65;15.05;;;20.20;90.00;;;;;;5133477;27;20481;-84
2023/05/22 01:14:07;;;;;;;22.87;15.03;;;20.30;90.00;;;;;;5133264;27;20488;-84
2023/05/22 01:16:38;;;;;;;22.52;14.73;;;20.30;90.00;;;;;;5133306;27;20084;-84
2023/05/22 01:19:31;;;;;;;26.73;15.85;;;20.20;90.00;;;;;;5133323;27;20273;-84
2023/05/22 01:22:11;;;;;;;23.95;15.80;;;20.20;89.90;;;;;;5133135;27;20041;-84
2023/05/22 01:25:15;;;;;;;23.33;15.40;;;20.20;90.00;;;;;;5133133;27;20118;-84
2023/05/22 01:27:59;;;;;;;24.63;15.07;;;20.20;90.00;;;;;;5133171;27;20417;-84
2023/05/22 01:31:01;;;;;;;21.67;14.13;;;20.10;90.10;;;;;;5133056;27;20058;-84
2023/05/22 01:33:32;;;;;;;22.85;14.70;;;20.10;90.10;;;;;;5132910;27;20023;-84
2023/05/22 01:36:00;;;;;;;25.58;14.73;;;20.00;90.20;;;;;;5132942;27;20026;-84
2023/05/22 01:38:26;;;;;;;25.05;14.60;;;20.00;90.20;;;;;;5098991;27;20619;-84
2023/05/22 01:40:53;;;;;;;22.75;15.02;;;20.00;90.20;;;;;;5132839;27;20011;-84
2023/05/22 01:43:19;;;;;;;23.90;15.20;;;19.90;90.20;;;;;;5098840;27;20383;-83
2023/05/22 01:45:45;;;;;;;22.98;14.68;;;19.90;90.20;;;;;;5132268;27;20031;-84
2023/05/22 01:48:11;;;;;;;28.05;15.68;;;19.90;90.20;;;;;;5115861;27;20387;-84
2023/05/22 01:50:38;;;;;;;21.88;14.43;;;19.90;90.20;;;;;;5115638;27;20027;-83
2023/05/22 01:53:28;;;;;;;22.65;15.20;;;19.90;90.30;;;;;;5132731;27;20031;-83
2023/05/22 01:56:08;;;;;;;23.85;15.20;;;19.90;90.10;;;;;;5132646;27;20048;-83
2023/05/22 01:58:51;;;;;;;23.98;15.00;;;19.90;90.20;;;;;;5133927;27;20019;-83
2023/05/22 02:01:19;;;;;;;23.63;15.38;;;19.90;90.20;;;;;;5132610;27;20055;-84
2023/05/22 02:03:50;;;;;;;25.02;15.35;;;19.80;90.20;;;;;;5132494;27;20531;-83
2023/05/22 02:06:18;;;;;;;23.15;15.38;;;19.80;90.20;;;;;;5132567;27;20023;-83
2023/05/22 02:08:43;;;;;;;23.00;15.05;;;19.70;90.10;;;;;;5132412;27;20038;-83
2023/05/22 02:11:11;;;;;;;24.88;15.50;;;19.70;90.20;;;;;;5115689;27;20023;-83
2023/05/22 02:13:37;;;;;;;25.90;15.32;;;19.70;90.50;;;;;;5133484;27;20045;-83
2023/05/22 02:16:03;;;;;;;24.05;14.65;;;19.70;90.20;;;;;;5132410;27;20122;-84
2023/05/22 02:18:29;;;;;;;23.77;15.63;;;19.70;90.20;;;;;;5115467;27;20371;-84
2023/05/22 02:20:59;;;;;;;25.95;15.13;;;19.60;90.20;;;;;;5132440;27;20015;-84
2023/05/22 02:23:28;;;;;;;22.73;15.35;;;19.60;90.20;;;;;;5132332;27;20511;-84
2023/05/22 02:25:54;;;;;;;25.17;15.45;;;19.60;90.20;;;;;;5132557;28;20043;-84
2023/05/22 02:28:20;;;;;;;24.52;15.50;;;19.60;90.20;;;;;;5132196;28;20066;-84
2023/05/22 02:30:46;;;;;;;21.60;14.88;;;19.60;90.20;;;;;;5115127;28;20023;-84
2023/05/22 02:33:12;;;;;;;26.27;15.27;;;19.50;90.10;;;;;;5115030;28;20500;-84
2023/05/22 02:35:37;;;;;;;23.17;14.75;;;19.50;90.60;;;;;;5098147;28;20522;-84
2023/05/22 02:38:03;;;;;;;25.63;15.82;;;19.40;90.20;;;;;;5132206;28;20034;-84
2023/05/22 02:40:29;;;;;;;25.48;15.00;;;19.40;90.20;;;;;;5115107;28;20019;-84
2023/05/22 02:42:54;;;;;;;23.17;15.18;;;19.30;90.20;;;;;;5098128;28;20019;-84
2023/05/22 02:45:21;;;;;;;26.85;15.65;;;19.20;90.30;;;;;;5097865;28;20143;-83
2023/05/22 02:47:46;;;;;;;24.27;14.73;;;19.20;90.40;;;;;;5114893;28;20459;-83
2023/05/22 02:50:12;;;;;;;23.65;14.82;;;19.20;90.40;;;;;;5115079;28;20055;-83
2023/05/22 02:52:38;;;;;;;24.70;15.85;;;19.20;90.40;;;;;;5098046;28;20027;-84
2023/05/22 02:55:04;;;;;;;23.10;15.38;;;19.20;90.30;;;;;;5097972;27;20384;-83
2023/05/22 02:57:30;;;;;;;24.27;15.13;;;19.20;90.30;;;;;;5118925;27;20031;-84
2023/05/22 02:59:56;;;;;;;24.50;15.27;;;19.10;90.30;;;;;;5119099;27;20019;-84
2023/05/22 03:02:25;;;;;;;25.75;15.75;;;19.00;90.30;;;;;;5119165;27;20098;-83
2023/05/22 03:04:50;;;;;;;26.05;15.07;;;19.00;90.90;;;;;;5135974;27;20025;-83
2023/05/22 03:07:16;;;;;;;23.30;15.45;;;18.90;90.50;;;;;;5101859;27;20157;-84
2023/05/22 03:09:42;;;;;;;27.15;15.20;;;19.00;90.50;;;;;;5135922;27;20504;-83
2023/05/22 03:12:08;;;;;;;23.83;15.75;;;19.00;90.50;;;;;;5101581;27;20051;-83
2023/05/22 03:14:34;;;;;;;26.23;15.35;;;19.00;90.40;;;;;;5118388;27;20398;-83
2023/05/22 03:16:59;;;;;;;25.77;16.20;;;18.90;90.40;;;;;;5118696;27;20147;-83
2023/05/22 03:19:25;;;;;;;25.00;16.02;;;18.90;90.60;;;;;;5118700;27;20027;-83
2023/05/22 03:21:51;;;;;;;22.65;15.43;;;18.80;90.60;;;;;;5101627;27;20392;-83
2023/05/22 03:24:17;;;;;;;25.85;16.58;;;18.70;90.80;;;;;;5135749;27;20406;-83
2023/05/22 03:26:43;;;;;;;29.48;15.70;;;18.70;90.80;;;;;;5135555;27;20421;-83
2023/05/22 03:29:08;;;;;;;26.77;15.75;;;18.70;90.80;;;;;;5101350;27;20023;-83
2023/05/22 03:31:34;;;;;;;28.58;16.98;;;18.70;90.80;;;;;;5135410;27;20023;-84
2023/05/22 03:34:00;;;;;;;26.38;16.65;;;18.60;90.80;;;;;;5135377;27;20480;-84
2023/05/22 03:36:26;;;;;;;26.55;16.98;;;18.60;90.90;;;;;;5135289;27;20020;-84
2023/05/22 03:38:52;;;;;;;29.42;16.95;;;18.60;90.90;;;;;;5101334;27;20020;-83
2023/05/22 03:41:17;;;;;;;27.85;16.10;;;18.70;90.90;;;;;;5136589;27;20050;-83
2023/05/22 03:43:44;;;;;;;31.35;17.42;;;18.70;90.90;;;;;;5136550;27;20046;-83
2023/05/22 03:46:10;;;;;;;26.00;16.90;;;18.70;90.90;;;;;;5118140;27;20384;-83
2023/05/22 03:48:35;;;;;;;27.98;16.13;;;18.70;90.90;;;;;;5135194;27;20027;-83
2023/05/22 03:51:01;;;;;;;29.50;17.40;;;18.70;90.90;;;;;;5117966;27;20027;-83
2023/05/22 03:53:28;;;;;;;24.67;16.77;;;18.80;90.90;;;;;;5117830;27;20027;-83
2023/05/22 03:55:53;;;;;;;25.02;16.38;;;18.70;90.90;;;;;;5117998;27;20026;-83
2023/05/22 03:58:19;;;;;;;26.20;16.63;;;18.70;90.90;;;;;;5100797;27;20020;-83
2023/05/22 04:00:45;;;;;;;25.70;16.40;;;18.70;91.00;;;;;;5117821;27;20023;-83
2023/05/22 04:03:18;;;;;;;28.30;17.52;;;18.70;91.00;;;;;;5117649;27;20384;-83
2023/05/22 04:05:45;;;;;;;28.48;16.88;;;18.70;91.00;;;;;;5118736;27;20023;-83
2023/05/22 04:08:10;;;;;;;27.73;16.52;;;18.70;91.00;;;;;;5116623;27;20042;-83
2023/05/22 04:10:37;;;;;;;25.45;16.45;;;18.60;91.10;;;;;;5100495;27;20031;-83
2023/05/22 04:13:04;;;;;;;26.05;17.33;;;18.60;91.20;;;;;;5134313;27;20115;-83
2023/05/22 04:15:32;;;;;;;30.65;17.70;;;18.60;91.20;;;;;;5134513;27;20110;-83
2023/05/22 04:17:59;;;;;;;26.35;16.67;;;18.60;91.20;;;;;;5101297;27;20019;-83
2023/05/22 04:20:25;;;;;;;27.83;17.20;;;18.60;91.20;;;;;;5134681;27;20483;-83
2023/05/22 04:22:53;;;;;;;28.65;16.95;;;18.60;91.20;;;;;;5135775;27;20027;-84
2023/05/22 04:25:19;;;;;;;26.33;16.70;;;18.60;91.20;;;;;;5134407;27;20023;-83
2023/05/22 04:27:46;;;;;;;26.48;16.88;;;18.60;91.20;;;;;;5117259;27;20016;-83
2023/05/22 04:30:15;;;;;;;27.05;16.60;;;18.60;91.20;;;;;;5100718;27;20028;-84
2023/05/22 04:32:42;;;;;;;23.20;15.85;;;18.60;91.50;;;;;;5117602;27;20119;-83
2023/05/22 04:35:08;;;;;;;26.42;16.58;;;18.60;91.30;;;;;;5134146;27;20034;-83
2023/05/22 04:37:35;;;;;;;26.45;15.68;;;18.50;91.30;;;;;;5117276;27;20068;-83
2023/05/22 04:40:05;;;;;;;26.95;16.48;;;18.50;91.30;;;;;;5134205;27;20301;-83
2023/05/22 04:42:33;;;;;;;29.23;16.88;;;18.50;91.40;;;;;;5134307;27;20535;-83
2023/05/22 04:44:59;;;;;;;26.77;16.35;;;18.40;91.50;;;;;;5117351;27;20031;-83
2023/05/22 04:47:27;;;;;;;26.42;16.42;;;18.40;91.50;;;;;;5116953;27;20034;-83
2023/05/22 04:49:55;;;;;;;28.35;17.23;;;18.30;91.70;;;;;;5117141;27;20484;-83
2023/05/22 04:52:21;;;;;;;25.48;16.85;;;18.30;91.80;;;;;;5133931;27;20038;-83
2023/05/22 04:54:50;;;;;;;27.90;16.55;;;18.20;91.90;;;;;;5116699;27;20629;-83
2023/05/22 04:57:16;;;;;;;26.67;16.15;;;18.20;91.90;;;;;;5133675;27;20027;-83
2023/05/22 04:59:41;;;;;;;33.50;16.58;;;18.20;91.90;;;;;;5116607;27;20015;-83
2023/05/22 05:02:07;;;;;;;25.60;16.02;;;18.20;91.90;;;;;;5099646;27;20020;-83
2023/05/22 05:04:33;;;;;;;22.33;15.07;;;18.10;92.00;;;;;;5099503;27;20034;-83
2023/05/22 05:06:59;;;;;;;21.98;15.23;;;18.00;92.20;;;;;;5134839;27;20084;-83
2023/05/22 05:09:24;;;;;;;22.13;15.07;;;18.00;92.30;;;;;;5133489;27;20030;-83
2023/05/22 05:11:51;;;;;;;21.90;14.68;;;18.10;92.30;;;;;;5099313;27;20058;-83
2023/05/22 05:14:17;;;;;;;19.73;13.95;;;18.10;92.20;;;;;;5133299;27;20046;-83
2023/05/22 05:16:43;;;;;;;24.35;15.35;;;18.10;92.20;;;;;;5118711;27;20023;-83
2023/05/22 05:19:08;;;;;;;25.30;15.82;;;18.00;92.20;;;;;;5125639;27;20018;-83
2023/05/22 05:21:34;;;;;;;28.13;16.08;;;18.00;92.30;;;;;;5110660;27;20019;-83
2023/05/22 05:24:00;;;;;;;26.25;15.23;;;18.00;92.40;;;;;;5124882;27;20019;-83
2023/05/22 05:26:26;;;;;;;24.60;15.27;;;17.90;92.50;;;;;;5109600;27;20117;-83
2023/05/22 05:28:52;;;;;;;26.27;15.98;;;17.90;92.50;;;;;;5126338;27;20055;-83
2023/05/22 05:31:19;;;;;;;23.50;16.30;;;17.90;92.60;;;;;;5107806;27;20480;-83
2023/05/22 05:33:45;;;;;;;24.88;15.77;;;17.90;92.70;;;;;;5125014;27;20399;-83
2023/05/22 05:36:11;;;;;;;23.88;15.60;;;17.90;92.60;;;;;;5125651;27;20021;-83
2023/05/22 05:38:37;;;;;;;23.70;15.90;;;17.90;92.70;;;;;;5135776;27;20556;-83
2023/05/22 05:41:02;;;;;;;27.10;16.45;;;17.90;92.60;;;;;;5115768;27;20029;-83
2023/05/22 05:43:28;;;;;;;33.08;17.13;;;17.90;92.60;;;;;;5098842;27;20027;-83
2023/05/22 05:45:54;;;;;;;29.52;17.90;;;17.90;92.70;;;;;;5132132;27;20038;-83
2023/05/22 05:48:19;;;;;;;33.05;19.42;;;17.80;92.70;;;;;;5098400;27;20034;-83
2023/05/22 05:50:45;;;;;;;35.10;19.55;;;17.80;92.80;;;;;;5115600;27;20023;-83
2023/05/22 05:53:11;;;;;;;33.20;20.38;;;17.70;92.90;;;;;;5098485;27;20031;-83
2023/05/22 05:55:37;;;;;;;33.55;19.73;;;17.70;93.10;;;;;;5111866;27;20100;-83
2023/05/22 05:58:02;;;;;;;34.67;20.63;;;17.60;93.10;;;;;;5095110;28;20020;-83
2023/05/22 06:00:28;;;;;;;39.60;21.88;;;17.60;93.20;;;;;;5112174;28;20058;-83
2023/05/22 06:02:54;;;;;;;33.80;20.35;;;17.60;93.30;;;;;;5095097;28;20027;-83
2023/05/22 06:05:21;;;;;;;35.13;20.85;;;17.60;93.20;;;;;;5112031;28;20012;-83
2023/05/22 06:07:47;;;;;;;32.72;19.33;;;17.60;93.20;;;;;;5095082;28;20477;-83
2023/05/22 06:10:13;;;;;;;34.35;19.40;;;17.60;93.20;;;;;;5095077;28;20433;-83
2023/05/22 06:12:39;;;;;;;31.10;20.02;;;17.70;93.20;;;;;;5094975;28;20044;-83
2023/05/22 06:15:08;;;;;;;32.67;19.80;;;17.80;93.10;;;;;;5094702;28;20180;-83
2023/05/22 06:17:35;;;;;;;33.17;19.83;;;17.80;93.10;;;;;;5095356;28;20028;-83
2023/05/22 06:20:02;;;;;;;30.20;19.38;;;17.80;93.10;;;;;;5094894;28;20024;-83
2023/05/22 06:22:28;;;;;;;33.85;20.17;;;17.90;93.10;;;;;;5094925;28;20028;-83
2023/05/22 06:24:54;;;;;;;34.35;20.65;;;17.90;93.10;;;;;;5094917;28;20373;-83
2023/05/22 06:27:21;;;;;;;34.67;20.02;;;17.90;93.00;;;;;;5094719;28;20088;-83
2023/05/22 06:29:47;;;;;;;33.65;21.35;;;18.00;93.00;;;;;;5094629;28;20028;-83
2023/05/22 06:32:13;;;;;;;38.45;22.83;;;18.00;93.10;;;;;;5111347;28;20028;-83
2023/05/22 06:34:39;;;;;;;36.63;22.00;;;18.00;93.10;;;;;;5094553;28;20092;-83
2023/05/22 06:37:05;;;;;;;38.72;22.80;;;17.90;93.20;;;;;;5111675;28;20027;-83
2023/05/22 06:39:31;;;;;;;37.83;22.23;;;17.90;93.30;;;;;;5111766;28;20511;-83
2023/05/22 06:41:56;;;;;;;38.55;21.85;;;17.90;93.30;;;;;;5094580;28;20024;-83
2023/05/22 06:44:24;;;;;;;40.50;22.13;;;18.00;93.60;;;;;;5094510;28;20031;-83
2023/05/22 06:46:51;;;;;;;40.15;22.90;;;18.00;93.10;;;;;;5114889;28;20028;-83
2023/05/22 06:49:17;;;;;;;39.75;22.48;;;18.00;93.10;;;;;;5098278;28;20031;-83
2023/05/22 06:51:42;;;;;;;37.67;22.85;;;18.10;93.10;;;;;;5136392;27;20429;-83
2023/05/22 06:54:11;;;;;;;40.80;22.20;;;18.00;93.10;;;;;;5132525;27;20019;-83
2023/05/22 06:56:36;;;;;;;39.13;23.40;;;18.00;93.10;;;;;;5152687;27;20034;-83
2023/05/22 06:59:02;;;;;;;42.67;23.92;;;18.00;93.10;;;;;;5118337;27;20027;-83
2023/05/22 07:01:28;;;;;;;43.80;23.63;;;18.00;93.00;;;;;;5153571;27;20038;-83
2023/05/22 07:03:56;;;;;;;42.67;23.58;;;18.10;93.10;;;;;;5134590;27;20019;-83
2023/05/22 07:06:23;;;;;;;39.33;23.80;;;18.00;93.00;;;;;;5153915;27;20023;-83
2023/05/22 07:08:50;;;;;;;38.35;23.10;;;18.00;93.20;;;;;;5118660;27;20031;-83
2023/05/22 07:11:15;;;;;;;42.00;24.05;;;18.10;93.30;;;;;;5135369;27;20050;-83
2023/05/22 07:13:41;;;;;;;42.85;24.42;;;18.10;93.20;;;;;;5153464;27;20039;-83
2023/05/22 07:16:06;;;;;;;45.22;24.02;;;18.10;93.10;;;;;;5118055;27;20030;-83
2023/05/22 07:18:32;;;;;;;42.95;24.80;;;18.20;93.20;;;;;;5135259;27;20015;-83
2023/05/22 07:20:58;;;;;;;43.63;24.30;;;18.20;93.10;;;;;;5135290;27;20026;-83
2023/05/22 07:23:23;;;;;;;46.88;26.00;;;18.20;93.10;;;;;;5135080;27;20122;-83
2023/05/22 07:25:49;;;;;;;50.15;24.55;;;18.20;93.10;;;;;;5153752;27;20555;-83
2023/05/22 07:28:15;;;;;;;46.97;25.92;;;18.30;93.00;;;;;;5153310;27;20113;-83
2023/05/22 07:30:41;;;;;;;48.42;26.65;;;18.30;93.10;;;;;;5135062;27;20384;-83
2023/05/22 07:33:06;;;;;;;45.30;26.33;;;18.30;93.20;;;;;;5152146;27;20026;-83
2023/05/22 07:35:33;;;;;;;46.17;26.15;;;18.30;93.20;;;;;;5117682;27;20019;-83
2023/05/22 07:37:59;;;;;;;47.15;27.13;;;18.20;93.80;;;;;;5152202;27;20380;-83
2023/05/22 07:40:25;;;;;;;48.03;26.25;;;18.20;94.00;;;;;;5152314;27;20480;-83
2023/05/22 07:42:50;;;;;;;48.95;26.90;;;18.20;93.70;;;;;;5119110;27;20034;-83
2023/05/22 07:45:16;;;;;;;49.40;26.92;;;18.20;93.70;;;;;;5121411;27;20027;-83
2023/05/22 07:47:41;;;;;;;51.15;29.20;;;18.20;93.70;;;;;;5138783;27;20596;-83
2023/05/22 07:50:08;;;;;;;53.85;29.13;;;18.20;94.20;;;;;;5121661;27;20018;-83
2023/05/22 07:52:33;;;;;;;48.53;27.73;;;18.20;93.90;;;;;;5138494;27;20037;-83
2023/05/22 07:54:59;;;;;;;54.10;28.52;;;18.20;93.90;;;;;;5157066;27;20031;-83
2023/05/22 07:57:25;;;;;;;53.78;28.30;;;18.20;93.90;;;;;;5121421;27;20110;-83
2023/05/22 07:59:51;;;;;;;50.45;27.83;;;18.30;94.00;;;;;;5155693;27;20130;-83
2023/05/22 08:02:17;;;;;;;48.28;26.75;;;18.30;94.00;;;;;;5138326;27;20023;-83
2023/05/22 08:04:43;;;;;;;52.88;29.38;;;18.40;94.10;;;;;;5138427;27;20096;-83
2023/05/22 08:07:09;;;;;;;48.92;28.00;;;18.50;94.10;;;;;;5138140;27;20048;-83
2023/05/22 08:09:35;;;;;;;50.63;27.15;;;18.60;94.10;;;;;;5156765;27;20027;-83
2023/05/22 08:12:01;;;;;;;52.20;26.92;;;18.60;94.00;;;;;;5120855;27;20075;-83
2023/05/22 08:14:27;;;;;;;47.47;27.05;;;18.60;94.00;;;;;;5155114;27;20058;-83
2023/05/22 08:16:52;;;;;;;52.63;27.85;;;18.60;94.00;;;;;;5121155;27;20433;-83
2023/05/22 08:19:18;;;;;;;56.08;30.73;;;18.70;94.30;;;;;;5155282;27;20023;-83
2023/05/22 08:21:43;;;;;;;49.55;26.27;;;18.70;94.30;;;;;;5156730;27;20019;-83
2023/05/22 08:24:09;;;;;;;51.40;27.88;;;18.70;94.20;;;;;;5137978;27;20054;-83
2023/05/22 08:26:35;;;;;;;55.22;29.95;;;18.60;94.30;;;;;;5120824;27;20030;-83
2023/05/22 08:29:00;;;;;;;52.53;28.20;;;18.70;94.30;;;;;;5120734;27;20030;-83
2023/05/22 08:31:29;;;;;;;51.10;28.55;;;18.80;94.40;;;;;;5155148;27;20007;-83
2023/05/22 08:34:01;;;;;;;54.22;29.13;;;18.90;94.40;;;;;;5138079;27;20054;-83
2023/05/22 08:36:28;;;;;;;56.30;29.67;;;19.00;94.30;;;;;;5138514;27;20023;-84
2023/05/22 08:38:54;;;;;;;47.80;27.90;;;19.10;94.20;;;;;;5137656;27;20514;-84
2023/05/22 08:41:20;;;;;;;51.20;28.23;;;19.30;94.10;;;;;;5120435;27;20133;-84
2023/05/22 08:43:46;;;;;;;51.45;29.17;;;19.40;93.90;;;;;;5137624;27;20094;-84
2023/05/22 08:46:15;;;;;;;45.67;26.33;;;19.40;93.80;;;;;;5154661;27;20476;-84
2023/05/22 08:48:41;;;;;;;50.40;29.08;;;19.60;93.70;;;;;;5120932;27;20084;-84
2023/05/22 08:51:09;;;;;;;49.42;29.83;;;19.70;93.80;;;;;;5137492;27;20570;-84
2023/05/22 08:53:35;;;;;;;49.83;29.60;;;19.80;93.90;;;;;;5154270;27;20019;-83
2023/05/22 08:56:04;;;;;;;53.25;27.77;;;19.90;93.70;;;;;;5137324;27;20038;-83
2023/05/22 08:58:32;;;;;;;51.97;28.38;;;20.00;93.70;;;;;;5154702;27;20018;-86
2023/05/22 09:00:58;;;;;;;51.83;29.38;;;20.10;93.30;;;;;;5155991;27;20371;-87
2023/05/22 09:03:27;;;;;;;48.95;28.70;;;20.10;93.30;;;;;;5137617;27;20029;-88
2023/05/22 09:05:53;;;;;;;51.70;28.20;;;20.20;93.30;;;;;;5154786;27;20448;-87
2023/05/22 09:08:19;;;;;;;42.50;25.60;;;20.30;93.40;;;;;;5137351;27;20019;-86
2023/05/22 09:10:44;;;;;;;43.53;25.45;;;20.40;93.30;;;;;;5154501;27;20045;-87
2023/05/22 09:13:21;;;;;;;46.25;27.63;;;20.40;93.00;;;;;;5119928;27;20047;-86
2023/05/22 09:15:47;;;;;;;47.53;25.55;;;20.50;92.80;;;;;;5154471;27;20090;-89
2023/05/22 09:18:13;;;;;;;48.20;28.05;;;20.60;92.70;;;;;;5154614;27;20034;-87
2023/05/22 09:20:38;;;;;;;42.42;27.02;;;20.70;92.50;;;;;;5154476;27;20027;-87
2023/05/22 09:23:13;;;;;;;44.47;26.13;;;20.70;92.10;;;;;;5116365;27;20486;-86
2023/05/22 09:25:41;;;;;;;39.22;24.48;;;20.80;92.20;;;;;;5135183;27;20019;-88
2023/05/22 09:28:07;;;;;;;37.88;23.55;;;20.80;92.20;;;;;;5134665;27;20046;-87
2023/05/22 09:30:35;;;;;;;41.97;25.23;;;20.90;91.90;;;;;;5133461;27;20015;-88
2023/05/22 09:33:01;;;;;;;44.13;25.95;;;21.00;91.80;;;;;;5116574;27;20419;-87
2023/05/22 09:35:26;;;;;;;42.28;27.20;;;21.10;91.90;;;;;;5133459;27;20020;-88
2023/05/22 09:37:54;;;;;;;41.97;25.10;;;21.20;91.80;;;;;;5099208;27;20027;-87
2023/05/22 09:40:21;;;;;;;37.65;22.42;;;21.20;91.90;;;;;;5133264;27;20027;-86
2023/05/22 09:42:46;;;;;;;35.08;21.83;;;21.30;91.60;;;;;;5099181;27;20023;-87
2023/05/22 09:45:12;;;;;;;39.10;23.52;;;21.40;91.20;;;;;;5116131;27;20160;-87
2023/05/22 09:47:39;;;;;;;40.20;24.45;;;21.50;91.30;;;;;;5132973;27;20485;-85
2023/05/22 09:50:07;;;;;;;40.83;25.60;;;21.60;91.20;;;;;;5141279;27;20019;-89
2023/05/22 09:52:35;;;;;;;40.22;24.23;;;21.70;91.00;;;;;;5124970;27;20023;-88
2023/05/22 09:55:05;;;;;;;40.10;22.38;;;21.80;91.30;;;;;;5140509;27;20026;-89
2023/05/22 09:57:51;;;;;;;33.08;19.73;;;21.80;90.60;;;;;;5139886;27;20076;-85
2023/05/22 10:00:18;;;;;;;40.25;23.23;;;22.00;90.20;;;;;;5129806;27;20027;-88
2023/05/22 10:03:13;;;;;;;39.30;23.70;;;22.00;90.30;;;;;;5136929;27;20102;-88
2023/05/22 10:05:43;;;;;;;36.03;22.42;;;22.10;90.00;;;;;;5130402;27;20092;-90
2023/05/22 10:08:12;;;;;;;37.70;23.13;;;22.10;89.50;;;;;;5138879;27;20026;-87
2023/05/22 10:10:41;;;;;;;33.08;22.08;;;22.10;89.20;;;;;;5146470;27;20034;-87
2023/05/22 10:13:07;;;;;;;37.95;22.00;;;22.20;88.30;;;;;;5138312;27;20046;-88
2023/05/22 10:15:34;;;;;;;38.63;21.67;;;22.20;88.70;;;;;;5138172;27;20027;-90
2023/05/22 10:18:00;;;;;;;34.45;21.35;;;22.30;88.90;;;;;;5145036;27;20024;-86
2023/05/22 10:20:28;;;;;;;33.55;20.60;;;22.40;88.70;;;;;;5141294;27;20456;-87
2023/05/22 10:22:54;;;;;;;38.35;21.65;;;22.50;88.20;;;;;;5136322;27;20076;-90
2023/05/22 10:25:24;;;;;;;36.40;21.85;;;22.50;87.90;;;;;;5145573;27;20042;-89
2023/05/22 10:27:54;;;;;;;30.40;18.50;;;22.60;87.50;;;;;;5125784;28;20034;-88
2023/05/22 10:30:35;;;;;;;29.48;19.42;;;22.70;86.80;;;;;;5142955;27;20031;-89
2023/05/22 10:33:20;;;;;;;32.40;18.90;;;22.70;85.00;;;;;;5136029;28;20039;-90
2023/05/22 10:36:01;;;;;;;34.92;19.88;;;22.70;85.80;;;;;;5139128;28;20019;-87
2023/05/22 10:38:45;;;;;;;29.25;18.00;;;22.80;85.00;;;;;;5140620;28;20019;-88
2023/05/22 10:41:11;;;;;;;31.67;19.80;;;22.80;86.30;;;;;;5140656;28;20019;-88
2023/05/22 10:43:41;;;;;;;31.08;19.67;;;22.90;86.00;;;;;;5130390;28;20031;-87
2023/05/22 10:46:08;;;;;;;32.97;20.35;;;23.00;85.40;;;;;;5143996;28;20468;-90
2023/05/22 10:48:54;;;;;;;31.75;19.67;;;23.10;85.30;;;;;;5135777;27;20028;-85
2023/05/22 10:51:23;;;;;;;33.33;20.65;;;23.10;84.70;;;;;;5098313;28;20031;-85
2023/05/22 10:54:04;;;;;;;30.98;20.25;;;23.20;84.90;;;;;;5114839;28;20028;-85
2023/05/22 10:56:34;;;;;;;28.27;18.98;;;23.20;84.20;;;;;;5115148;28;20027;-85
2023/05/22 10:59:01;;;;;;;33.13;20.15;;;23.20;83.90;;;;;;5115073;28;20020;-85
2023/05/22 11:01:27;;;;;;;34.17;20.20;;;23.20;83.50;;;;;;5131960;28;20023;-85
2023/05/22 11:03:59;;;;;;;35.72;21.15;;;23.30;84.30;;;;;;5114906;28;20087;-85
2023/05/22 11:07:01;;;;;;;33.63;20.30;;;23.40;84.20;;;;;;5132103;28;20023;-85
2023/05/22 11:09:31;;;;;;;34.03;21.43;;;23.50;84.30;;;;;;5122905;28;20499;-85
2023/05/22 11:12:23;;;;;;;32.88;20.52;;;23.50;83.60;;;;;;5115474;28;20027;-85
2023/05/22 11:14:56;;;;;;;29.08;18.35;;;23.60;83.10;;;;;;5132959;28;20437;-85
2023/05/22 11:17:27;;;;;;;29.00;18.08;;;23.50;81.30;;;;;;5134006;27;20030;-85
2023/05/22 11:20:01;;;;;;;29.40;18.67;;;23.60;81.90;;;;;;5137004;27;20395;-85
2023/05/22 11:22:33;;;;;;;30.92;18.02;;;23.70;81.10;;;;;;5135700;27;20514;-85
2023/05/22 11:25:02;;;;;;;28.50;18.00;;;23.70;81.00;;;;;;5135646;27;20027;-85
2023/05/22 11:27:28;;;;;;;29.42;18.02;;;23.70;80.90;;;;;;5135609;27;20400;-85
2023/05/22 11:29:55;;;;;;;25.17;16.05;;;23.80;81.10;;;;;;5118489;27;20023;-85
2023/05/22 11:32:22;;;;;;;28.40;16.83;;;23.80;79.50;;;;;;5135496;27;20042;-85
2023/05/22 11:34:49;;;;;;;25.05;16.27;;;23.70;79.70;;;;;;5135396;27;20088;-85
2023/05/22 11:37:17;;;;;;;26.95;15.80;;;23.90;79.80;;;;;;5118088;27;20071;-85
2023/05/22 11:39:59;;;;;;;27.00;16.40;;;24.00;79.50;;;;;;5135372;27;20476;-85
2023/05/22 11:42:25;;;;;;;21.48;14.25;;;24.10;79.20;;;;;;5135330;27;20011;-85
2023/05/22 11:44:51;;;;;;;24.70;14.77;;;24.10;76.70;;;;;;5118089;27;20075;-86
2023/05/22 11:47:17;;;;;;;27.50;14.70;;;24.00;76.20;;;;;;5117996;27;20379;-85
2023/05/22 11:49:43;;;;;;;25.63;15.35;;;23.90;77.00;;;;;;5117626;27;20031;-85
2023/05/22 11:52:09;;;;;;;22.83;13.90;;;23.90;76.40;;;;;;5135180;27;20488;-85
2023/05/22 11:54:35;;;;;;;26.52;15.25;;;24.10;77.30;;;;;;5134986;27;20064;-86
2023/05/22 11:57:08;;;;;;;25.35;16.27;;;24.20;77.50;;;;;;5135145;27;20023;-85
2023/05/22 11:59:33;;;;;;;25.17;16.77;;;24.30;77.60;;;;;;5117915;27;20392;-86
2023/05/22 12:01:59;;;;;;;25.75;15.77;;;24.50;77.80;;;;;;5134893;27;20112;-85
2023/05/22 12:04:25;;;;;;;26.10;14.85;;;24.50;75.50;;;;;;5117872;27;20023;-85
2023/05/22 12:06:54;;;;;;;25.55;16.48;;;24.60;76.00;;;;;;5134821;27;20038;-85
2023/05/22 12:09:21;;;;;;;26.77;16.75;;;24.70;75.90;;;;;;5134907;27;20027;-86
2023/05/22 12:11:47;;;;;;;24.63;15.85;;;24.70;77.00;;;;;;5117611;27;20037;-86
2023/05/22 12:14:13;;;;;;;27.98;16.88;;;24.80;75.80;;;;;;5135637;27;20043;-86
2023/05/22 12:16:39;;;;;;;26.30;16.35;;;24.80;75.50;;;;;;5117527;27;20031;-85
2023/05/22 12:19:10;;;;;;;25.83;16.60;;;24.90;75.10;;;;;;5134734;27;20015;-85
2023/05/22 12:21:38;;;;;;;26.15;16.92;;;25.00;75.90;;;;;;5134406;27;20112;-86
2023/05/22 12:24:05;;;;;;;26.25;15.95;;;25.00;75.70;;;;;;5117570;27;20027;-85
2023/05/22 12:26:31;;;;;;;24.70;16.60;;;25.00;75.00;;;;;;5134546;27;20124;-86
2023/05/22 12:28:57;;;;;;;27.02;16.88;;;25.00;75.40;;;;;;5133632;27;20030;-86
2023/05/22 12:31:24;;;;;;;26.67;17.85;;;25.10;75.40;;;;;;5134545;27;20215;-86